createdAt,value
2018-12-03T00:01:50.530Z,2.20
2018-12-03T00:04:22.180Z,2.10
2018-12-03T00:06:50.379Z,1.43
2018-12-03T00:09:18.765Z,0.70
2018-12-03T00:11:46.972Z,0.97
2018-12-03T00:14:15.109Z,1.33
2018-12-03T00:16:43.244Z,1.67
2018-12-03T00:19:11.368Z,1.30
2018-12-03T00:21:39.483Z,2.12
2018-12-03T00:24:07.736Z,1.00
2018-12-03T00:26:35.914Z,1.10
2018-12-03T00:29:04.143Z,1.00
2018-12-03T00:31:32.242Z,0.80
2018-12-03T00:34:00.363Z,0.60
2018-12-03T00:36:28.472Z,0.80
2018-12-03T00:38:56.582Z,0.57
2018-12-03T00:41:24.689Z,0.67
2018-12-03T00:43:52.812Z,0.60
2018-12-03T00:46:20.919Z,0.60
2018-12-03T00:48:49.048Z,0.60
2018-12-03T00:51:17.149Z,0.50
2018-12-03T00:53:45.276Z,0.50
2018-12-03T00:56:13.389Z,0.47
2018-12-03T00:58:41.507Z,0.50
2018-12-03T01:01:09.612Z,0.50
2018-12-03T01:03:37.721Z,0.60
2018-12-03T01:06:06.273Z,0.50
2018-12-03T01:08:34.541Z,0.60
2018-12-03T01:11:02.676Z,0.70
2018-12-03T01:13:30.792Z,0.67
2018-12-03T01:15:58.898Z,0.70
2018-12-03T01:18:27.024Z,0.70
2018-12-03T01:20:55.173Z,0.60
2018-12-03T01:23:23.306Z,1.00
2018-12-03T01:25:51.624Z,0.87
2018-12-03T01:28:19.740Z,0.80
2018-12-03T01:30:47.834Z,0.70
2018-12-03T01:33:15.975Z,0.60
2018-12-03T01:35:44.566Z,0.80
2018-12-03T01:38:12.695Z,0.57
2018-12-03T01:40:40.818Z,0.60
2018-12-03T01:43:08.980Z,0.70
2018-12-03T01:45:37.109Z,0.50
2018-12-03T01:48:05.293Z,0.60
2018-12-03T01:50:33.413Z,0.53
2018-12-03T01:53:01.513Z,0.90
2018-12-03T01:55:29.841Z,0.50
2018-12-03T01:57:57.967Z,0.53
2018-12-03T02:00:26.106Z,0.70
2018-12-03T02:02:54.202Z,0.40
2018-12-03T02:05:22.367Z,0.50
2018-12-03T02:07:50.470Z,0.50
2018-12-03T02:10:18.585Z,0.50
2018-12-03T02:12:46.683Z,0.47
2018-12-03T02:15:15.708Z,0.50
2018-12-03T02:17:44.236Z,0.60
2018-12-03T02:20:13.402Z,0.50
2018-12-03T02:22:42.531Z,0.50
2018-12-03T02:25:11.057Z,0.50
2018-12-03T02:27:39.177Z,0.43
2018-12-03T02:30:12.368Z,0.40
2018-12-03T02:32:40.610Z,0.40
2018-12-03T02:35:09.748Z,0.60
2018-12-03T02:37:37.983Z,0.40
2018-12-03T02:40:08.731Z,0.43
2018-12-03T02:42:36.942Z,0.50
2018-12-03T02:45:06.373Z,0.60
2018-12-03T02:47:34.514Z,0.70
2018-12-03T02:50:02.736Z,0.80
2018-12-03T02:52:30.855Z,0.47
2018-12-03T02:54:58.993Z,0.60
2018-12-03T02:57:27.114Z,0.60
2018-12-03T02:59:55.263Z,1.30
2018-12-03T03:02:23.388Z,1.77
2018-12-03T03:04:51.514Z,1.57
2018-12-03T03:07:19.659Z,2.40
2018-12-03T03:09:47.811Z,2.30
2018-12-03T03:12:15.928Z,1.60
2018-12-03T03:14:44.071Z,0.67
2018-12-03T03:17:12.210Z,0.57
2018-12-03T03:19:40.342Z,0.60
2018-12-03T03:22:08.476Z,0.60
2018-12-03T03:24:36.853Z,0.60
2018-12-03T03:27:04.974Z,0.70
2018-12-03T03:29:33.116Z,0.57
2018-12-03T03:32:01.257Z,0.90
2018-12-03T03:34:29.425Z,0.87
2018-12-03T03:36:57.529Z,0.73
2018-12-03T03:39:25.693Z,1.10
2018-12-03T03:41:53.804Z,1.33
2018-12-03T03:44:21.967Z,2.30
2018-12-03T03:46:50.080Z,1.70
2018-12-03T03:49:18.225Z,1.13
2018-12-03T03:51:46.344Z,1.70
2018-12-03T03:54:14.472Z,1.70
2018-12-03T03:56:42.613Z,2.10
2018-12-03T03:59:10.734Z,1.57
2018-12-03T04:01:38.900Z,1.37
2018-12-03T04:04:07.045Z,2.63
2018-12-03T04:06:35.204Z,1.97
2018-12-03T04:09:03.489Z,2.23
2018-12-03T04:11:31.714Z,2.57
2018-12-03T04:13:59.892Z,2.20
2018-12-03T04:16:28.533Z,2.20
2018-12-03T04:18:56.694Z,2.80
2018-12-03T04:21:24.875Z,3.10
2018-12-03T04:23:53.466Z,1.57
2018-12-03T04:26:22.062Z,1.00
2018-12-03T04:28:50.158Z,0.90
2018-12-03T04:31:18.310Z,0.80
2018-12-03T04:33:46.512Z,0.87
2018-12-03T04:36:14.737Z,1.00
2018-12-03T04:38:43.470Z,1.80
2018-12-03T04:41:11.623Z,1.73
2018-12-03T04:43:39.739Z,2.40
2018-12-03T04:46:07.864Z,2.80
2018-12-03T04:48:36.058Z,3.23
2018-12-03T04:51:04.327Z,3.90
2018-12-03T04:53:32.506Z,2.80
2018-12-03T04:56:00.773Z,2.60
2018-12-03T04:58:28.927Z,1.90
2018-12-03T05:00:57.031Z,2.03
2018-12-03T05:03:25.154Z,1.90
2018-12-03T05:05:53.265Z,1.70
2018-12-03T05:08:21.811Z,1.53
2018-12-03T05:10:49.935Z,2.20
2018-12-03T05:13:18.090Z,1.83
2018-12-03T05:15:46.752Z,2.03
2018-12-03T05:18:15.259Z,1.73
2018-12-03T05:20:43.389Z,1.63
2018-12-03T05:23:11.524Z,2.17
2018-12-03T05:25:39.643Z,1.73
2018-12-03T05:28:07.765Z,2.17
2018-12-03T05:30:35.874Z,2.17
2018-12-03T05:33:03.996Z,2.37
2018-12-03T05:35:32.123Z,1.87
2018-12-03T05:38:00.245Z,2.17
2018-12-03T05:40:30.307Z,2.00
2018-12-03T05:42:58.424Z,2.10
2018-12-03T05:45:26.538Z,2.33
2018-12-03T05:47:54.679Z,1.80
2018-12-03T05:50:22.804Z,2.00
2018-12-03T05:52:50.930Z,2.13
2018-12-03T05:55:19.044Z,2.20
2018-12-03T05:57:47.141Z,2.43
2018-12-03T06:00:17.319Z,2.63
2018-12-03T06:02:45.453Z,2.67
2018-12-03T06:05:14.111Z,2.43
2018-12-03T06:07:42.257Z,2.07
2018-12-03T06:10:17.059Z,1.80
2018-12-03T06:12:45.153Z,2.10
2018-12-03T06:15:17.081Z,2.03
2018-12-03T06:17:45.826Z,2.20
2018-12-03T06:20:14.912Z,2.27
2018-12-03T06:22:43.105Z,2.17
2018-12-03T06:25:14.489Z,1.70
2018-12-03T06:27:42.592Z,1.90
2018-12-03T06:30:13.002Z,1.80
2018-12-03T06:32:41.101Z,1.60
2018-12-03T06:35:10.475Z,1.80
2018-12-03T06:37:38.589Z,2.40
2018-12-03T06:40:11.253Z,2.07
2018-12-03T06:42:39.449Z,2.40
2018-12-03T06:45:09.485Z,2.20
2018-12-03T06:47:37.870Z,2.43
2018-12-03T06:50:07.972Z,2.13
2018-12-03T06:52:36.072Z,2.57
2018-12-03T06:55:05.206Z,2.67
2018-12-03T06:57:33.307Z,3.37
2018-12-03T07:00:01.416Z,3.27
2018-12-03T07:02:29.528Z,3.57
2018-12-03T07:04:57.625Z,3.80
2018-12-03T07:07:25.737Z,3.57
2018-12-03T07:09:55.123Z,4.40
2018-12-03T07:12:21.990Z,3.77
2018-12-03T07:14:50.116Z,3.37
2018-12-03T07:17:18.229Z,3.80
2018-12-03T07:19:46.394Z,3.60
2018-12-03T07:22:14.511Z,5.27
2018-12-03T07:24:42.608Z,4.10
2018-12-03T07:27:10.722Z,4.17
2018-12-03T07:29:38.856Z,4.60
2018-12-03T07:32:06.972Z,3.93
2018-12-03T07:34:35.069Z,3.97
2018-12-03T07:37:03.193Z,3.27
2018-12-03T07:39:31.327Z,3.27
2018-12-03T07:41:59.471Z,3.40
2018-12-03T07:44:27.600Z,2.73
2018-12-03T07:46:55.722Z,2.70
2018-12-03T07:49:23.812Z,3.20
2018-12-03T07:51:51.971Z,2.63
2018-12-03T07:54:20.089Z,2.77
2018-12-03T07:56:48.188Z,2.67
2018-12-03T07:59:16.298Z,3.30
2018-12-03T08:01:44.863Z,2.17
2018-12-03T08:04:13.257Z,1.80
2018-12-03T08:06:41.394Z,2.60
2018-12-03T08:09:09.583Z,2.07
2018-12-03T08:11:37.715Z,2.00
2018-12-03T08:14:05.990Z,1.57
2018-12-03T08:16:34.121Z,1.80
2018-12-03T08:19:02.233Z,1.30
2018-12-03T08:21:30.531Z,1.43
2018-12-03T08:24:02.734Z,1.50
2018-12-03T08:26:30.960Z,1.93
2018-12-03T08:28:59.133Z,1.80
2018-12-03T08:31:27.722Z,1.70
2018-12-03T08:33:56.070Z,1.30
2018-12-03T08:36:24.488Z,1.57
2018-12-03T08:38:52.626Z,1.07
2018-12-03T08:41:20.770Z,2.00
2018-12-03T08:43:48.889Z,1.63
2018-12-03T08:46:17.168Z,2.00
2018-12-03T08:48:45.531Z,1.87
2018-12-03T08:51:13.632Z,1.67
2018-12-03T08:53:45.176Z,1.87
2018-12-03T08:56:13.452Z,3.10
2018-12-03T08:58:41.807Z,1.90
2018-12-03T09:01:11.901Z,2.30
2018-12-03T09:03:40.644Z,2.37
2018-12-03T09:06:11.359Z,2.30
2018-12-03T09:08:39.599Z,2.40
2018-12-03T09:11:10.098Z,2.17
2018-12-03T09:13:38.361Z,2.00
2018-12-03T09:16:06.785Z,1.87
2018-12-03T09:18:38.545Z,2.00
2018-12-03T09:21:11.497Z,2.17
2018-12-03T09:23:40.532Z,2.30
2018-12-03T09:26:09.342Z,2.70
2018-12-03T09:28:37.801Z,2.30
2018-12-03T09:31:06.196Z,3.90
2018-12-03T09:33:34.366Z,2.20
2018-12-03T09:36:02.538Z,2.10
2018-12-03T09:38:35.269Z,2.60
2018-12-03T09:41:05.983Z,2.23
2018-12-03T09:43:31.705Z,2.77
2018-12-03T09:45:59.814Z,2.90
2018-12-03T09:48:28.221Z,2.10
2018-12-03T09:50:56.338Z,2.17
2018-12-03T09:53:24.450Z,2.80
2018-12-03T09:55:52.605Z,2.17
2018-12-03T09:58:22.680Z,2.17
2018-12-03T10:00:50.819Z,2.47
2018-12-03T10:03:24.119Z,2.83
2018-12-03T10:05:56.925Z,1.83
2018-12-03T10:08:26.506Z,1.97
2018-12-03T10:10:58.379Z,2.50
2018-12-03T10:13:27.353Z,2.07
2018-12-03T10:15:55.482Z,2.37
2018-12-03T10:18:23.791Z,2.10
2018-12-03T10:20:57.579Z,1.93
2018-12-03T10:23:26.254Z,1.90
2018-12-03T10:25:55.691Z,2.60
2018-12-03T10:28:24.271Z,2.83
2018-12-03T10:30:53.762Z,2.87
2018-12-03T10:33:29.217Z,2.77
2018-12-03T10:35:58.634Z,2.90
2018-12-03T10:38:29.656Z,2.80
2018-12-03T10:41:02.385Z,3.27
2018-12-03T10:43:30.519Z,4.30
2018-12-03T10:45:58.631Z,3.10
2018-12-03T10:48:26.734Z,3.53
2018-12-03T10:50:54.860Z,4.03
2018-12-03T10:53:27.350Z,3.33
2018-12-03T10:55:55.572Z,3.30
2018-12-03T10:58:23.685Z,4.00
2018-12-03T11:01:03.314Z,2.97
2018-12-03T11:03:36.946Z,3.10
2018-12-03T11:06:10.623Z,3.40
2018-12-03T11:08:38.772Z,3.20
2018-12-03T11:11:06.888Z,3.10
2018-12-03T11:13:35.005Z,2.50
2018-12-03T11:16:03.142Z,3.57
2018-12-03T11:18:37.248Z,2.63
2018-12-03T11:21:05.975Z,4.12
2018-12-03T11:23:34.613Z,3.80
2018-12-03T11:26:02.239Z,4.23
2018-12-03T11:28:40.169Z,4.73
2018-12-03T11:31:12.688Z,4.40
2018-12-03T11:33:40.828Z,4.33
2018-12-03T11:36:08.978Z,3.30
2018-12-03T11:39:46.153Z,3.17
2018-12-03T11:42:14.287Z,2.97
2018-12-03T11:44:42.424Z,3.20
2018-12-03T11:47:10.545Z,2.80
2018-12-03T11:49:38.923Z,3.77
2018-12-03T11:52:07.157Z,3.03
2018-12-03T11:54:35.249Z,3.20
2018-12-03T11:57:03.378Z,3.40
2018-12-03T11:59:31.508Z,2.67
2018-12-03T12:01:59.681Z,3.03
2018-12-03T12:04:27.796Z,3.23
2018-12-03T12:06:55.896Z,3.83
2018-12-03T12:09:24.062Z,4.03
2018-12-03T12:11:52.168Z,3.20
2018-12-03T12:14:23.954Z,4.40
2018-12-03T12:16:52.078Z,3.63
2018-12-03T12:19:20.234Z,3.50
2018-12-03T12:21:48.346Z,3.20
2018-12-03T12:24:16.465Z,3.07
2018-12-03T12:26:44.617Z,3.27
2018-12-03T12:29:12.806Z,3.93
2018-12-03T12:31:40.922Z,3.20
2018-12-03T12:34:09.065Z,2.80
2018-12-03T12:36:37.170Z,2.83
2018-12-03T12:39:08.759Z,3.50
2018-12-03T12:41:37.171Z,3.67
2018-12-03T12:44:07.008Z,3.52
2018-12-03T12:46:35.702Z,3.80
2018-12-03T12:49:03.858Z,5.23
2018-12-03T12:51:31.942Z,4.13
2018-12-03T12:54:00.086Z,4.95
2018-12-03T12:56:28.206Z,3.63
2018-12-03T12:58:56.352Z,3.00
2018-12-03T13:01:24.446Z,3.30
2018-12-03T13:03:52.779Z,3.30
2018-12-03T13:06:20.890Z,3.60
2018-12-03T13:08:49.042Z,3.40
2018-12-03T13:11:17.201Z,5.20
2018-12-03T13:13:45.549Z,3.53
2018-12-03T13:16:13.659Z,3.80
2018-12-03T13:18:41.840Z,4.80
2018-12-03T13:21:09.932Z,4.80
2018-12-03T13:23:38.076Z,4.10
2018-12-03T13:26:07.311Z,4.70
2018-12-03T13:28:35.446Z,3.13
2018-12-03T13:31:03.598Z,3.73
2018-12-03T13:33:31.714Z,3.83
2018-12-03T13:36:00.071Z,3.20
2018-12-03T13:38:28.229Z,6.00
2018-12-03T13:41:27.501Z,4.70
2018-12-03T13:43:54.953Z,3.90
2018-12-03T13:46:22.435Z,6.30
2018-12-03T13:48:50.803Z,5.20
2018-12-03T13:51:18.266Z,3.73
2018-12-03T13:53:45.739Z,5.30
2018-12-03T13:56:13.229Z,5.13
2018-12-03T13:58:40.657Z,5.13
2018-12-03T14:01:08.130Z,4.63
2018-12-03T14:03:35.626Z,5.17
2018-12-03T14:06:03.220Z,4.57
2018-12-03T14:08:30.689Z,3.93
2018-12-03T14:10:58.178Z,3.93
2018-12-03T14:13:25.676Z,6.33
2018-12-03T14:15:53.154Z,4.43
2018-12-03T14:29:34.888Z,4.20
2018-12-03T14:32:02.357Z,3.67
2018-12-03T14:34:29.858Z,4.50
2018-12-03T14:36:57.328Z,4.47
2018-12-03T14:39:24.833Z,5.30
2018-12-03T14:41:52.332Z,4.70
2018-12-03T14:44:19.826Z,5.33
2018-12-03T14:46:47.337Z,4.77
2018-12-03T14:49:14.823Z,5.73
2018-12-03T14:51:42.343Z,4.70
2018-12-03T14:54:09.837Z,3.90
2018-12-03T14:56:37.309Z,3.90
2018-12-03T14:59:04.828Z,3.80
2018-12-03T15:01:32.305Z,4.30
2018-12-03T15:04:01.690Z,3.40
2018-12-03T15:06:29.191Z,3.30
2018-12-03T15:08:56.668Z,3.20
2018-12-03T15:11:24.241Z,3.30
2018-12-03T15:13:51.719Z,2.70
2018-12-03T15:16:19.247Z,3.23
2018-12-03T15:18:46.732Z,4.00
2018-12-03T15:21:14.244Z,3.50
2018-12-03T15:23:41.704Z,2.73
2018-12-03T15:26:09.181Z,3.50
2018-12-03T15:28:36.778Z,3.10
2018-12-03T15:31:04.296Z,3.93
2018-12-03T15:33:31.847Z,3.90
2018-12-03T15:35:59.319Z,4.50
2018-12-03T15:38:26.764Z,3.37
2018-12-03T15:40:54.271Z,4.70
2018-12-03T15:43:21.747Z,4.50
2018-12-03T15:45:49.252Z,3.13
2018-12-03T15:48:16.710Z,3.87
2018-12-03T15:50:44.203Z,3.57
2018-12-03T15:53:11.684Z,3.67
2018-12-03T15:55:39.212Z,2.97
2018-12-03T15:58:06.697Z,4.07
2018-12-03T16:00:34.174Z,3.10
2018-12-03T16:03:01.639Z,3.83
2018-12-03T16:05:29.110Z,3.23
2018-12-03T16:07:56.595Z,2.87
2018-12-03T16:10:24.115Z,2.37
2018-12-03T16:12:51.612Z,2.83
2018-12-03T16:15:19.224Z,2.90
2018-12-03T16:17:46.695Z,3.13
2018-12-03T16:20:14.271Z,3.20
2018-12-03T16:22:41.750Z,3.20
2018-12-03T16:25:09.260Z,2.70
2018-12-03T16:27:36.767Z,3.40
2018-12-03T16:30:05.273Z,3.00
2018-12-03T16:32:32.738Z,3.00
2018-12-03T16:35:00.493Z,4.27
2018-12-03T16:37:27.962Z,3.73
2018-12-03T16:39:55.429Z,3.53
2018-12-03T16:42:22.935Z,4.40
2018-12-03T16:44:50.403Z,4.00
2018-12-03T16:47:17.863Z,4.60
2018-12-03T16:49:45.354Z,6.27
2018-12-03T16:52:13.566Z,3.90
2018-12-03T16:54:41.058Z,4.70
2018-12-03T16:57:08.554Z,3.40
2018-12-03T16:59:36.283Z,3.93
2018-12-03T17:02:03.794Z,3.83
2018-12-03T17:04:31.274Z,3.73
2018-12-03T17:06:58.770Z,4.20
2018-12-03T17:09:26.275Z,3.77
2018-12-03T17:11:53.764Z,4.03
2018-12-03T17:14:21.227Z,3.73
2018-12-03T17:16:48.820Z,3.93
2018-12-03T17:19:16.289Z,4.07
2018-12-03T17:21:44.704Z,4.70
2018-12-03T17:24:12.174Z,4.97
2018-12-03T17:26:39.667Z,5.57
2018-12-03T17:29:07.177Z,4.47
2018-12-03T17:31:34.778Z,4.60
2018-12-03T17:34:02.414Z,3.70
2018-12-03T17:36:29.895Z,4.57
2018-12-03T17:38:57.407Z,4.40
2018-12-03T17:41:24.887Z,3.90
2018-12-03T17:43:52.421Z,4.10
2018-12-03T17:46:19.905Z,3.93
2018-12-03T17:48:47.421Z,4.27
2018-12-03T17:51:14.901Z,3.97
2018-12-03T17:53:42.390Z,3.60
2018-12-03T17:56:09.875Z,3.90
2018-12-03T17:58:37.365Z,3.80
2018-12-03T18:01:05.119Z,3.17
2018-12-03T18:03:32.678Z,3.87
2018-12-03T18:06:00.196Z,3.90
2018-12-03T18:08:27.696Z,3.63
2018-12-03T18:10:55.168Z,3.60
2018-12-03T18:13:22.665Z,3.40
2018-12-03T18:15:50.159Z,3.40
2018-12-03T18:18:17.630Z,2.40
2018-12-03T18:20:45.133Z,3.00
2018-12-03T18:23:12.675Z,1.70
2018-12-03T18:25:40.153Z,1.80
2018-12-03T18:28:07.623Z,1.50
2018-12-03T18:30:35.999Z,1.77
2018-12-03T18:33:03.663Z,1.50
2018-12-03T18:35:31.262Z,1.60
2018-12-03T18:37:58.759Z,1.73
2018-12-03T18:40:26.225Z,1.33
2018-12-03T18:42:53.694Z,1.00
2018-12-03T18:45:21.188Z,1.00
2018-12-03T18:47:48.648Z,0.87
2018-12-03T18:50:16.153Z,0.90
2018-12-03T18:52:43.653Z,1.03
2018-12-03T18:55:11.097Z,1.00
2018-12-03T18:57:38.594Z,0.70
2018-12-03T19:00:09.678Z,0.80
2018-12-03T19:02:37.137Z,1.00
2018-12-03T19:05:05.026Z,1.33
2018-12-03T19:07:32.495Z,1.10
2018-12-03T19:09:59.966Z,1.70
2018-12-03T19:12:28.537Z,1.40
2018-12-03T19:14:56.025Z,2.07
2018-12-03T19:17:23.518Z,2.37
2018-12-03T19:19:50.990Z,1.87
2018-12-03T19:22:18.462Z,1.93
2018-12-03T19:24:45.932Z,2.63
2018-12-03T19:27:13.411Z,2.67
2018-12-03T19:29:40.920Z,3.37
2018-12-03T19:32:08.402Z,2.93
2018-12-03T19:34:35.856Z,3.40
2018-12-03T19:37:03.350Z,3.77
2018-12-03T19:39:30.813Z,4.23
2018-12-03T19:41:58.312Z,6.77
2018-12-03T19:44:25.780Z,4.43
2018-12-03T19:46:53.640Z,4.10
2018-12-03T19:49:21.109Z,4.90
2018-12-03T19:51:48.578Z,5.67
2018-12-03T19:54:16.108Z,5.33
2018-12-03T19:56:43.685Z,12.40
2018-12-03T19:59:11.166Z,5.87
2018-12-03T20:01:38.656Z,7.87
2018-12-03T20:04:09.969Z,4.27
2018-12-03T20:06:37.442Z,4.20
2018-12-03T20:09:05.862Z,6.40
2018-12-03T20:11:33.344Z,4.90
2018-12-03T20:14:00.835Z,4.57
2018-12-03T20:16:28.396Z,5.53
2018-12-03T20:18:55.853Z,5.27
2018-12-03T20:21:23.634Z,7.43
2018-12-03T20:23:51.101Z,6.40
2018-12-03T20:26:18.594Z,6.47
2018-12-03T20:28:46.077Z,7.57
2018-12-03T20:31:14.483Z,8.20
2018-12-03T20:33:42.075Z,5.93
2018-12-03T20:36:09.582Z,5.87
2018-12-03T20:38:37.062Z,7.43
2018-12-03T20:41:04.518Z,5.03
2018-12-03T20:43:32.018Z,4.27
2018-12-03T20:46:02.731Z,2.70
2018-12-03T20:48:34.490Z,3.20
2018-12-03T20:51:02.073Z,2.67
2018-12-03T20:53:29.550Z,3.20
2018-12-03T20:55:57.036Z,2.40
2018-12-03T20:58:24.510Z,2.97
2018-12-03T21:00:51.987Z,2.80
2018-12-03T21:03:19.965Z,3.40
2018-12-03T21:05:47.460Z,2.80
2018-12-03T21:08:15.121Z,2.33
2018-12-03T21:10:42.606Z,2.60
2018-12-03T21:13:10.107Z,2.07
2018-12-03T21:15:37.562Z,2.33
2018-12-03T21:18:05.087Z,2.30
2018-12-03T21:20:32.575Z,2.60
2018-12-03T21:23:00.022Z,3.00
2018-12-03T21:25:27.508Z,4.60
2018-12-03T21:27:56.160Z,6.43
2018-12-03T21:30:23.642Z,7.20
2018-12-03T21:32:51.110Z,7.00
2018-12-03T21:35:18.582Z,6.73
2018-12-03T21:37:46.089Z,8.00
2018-12-03T21:40:13.908Z,7.60
2018-12-03T21:42:41.363Z,7.50
2018-12-03T21:45:08.860Z,6.90
2018-12-03T21:47:36.450Z,6.60
2018-12-03T21:50:05.917Z,7.30
2018-12-03T21:52:33.470Z,7.77
2018-12-03T21:55:00.970Z,8.30
2018-12-03T21:57:28.433Z,6.00
2018-12-03T21:59:56.985Z,6.73
2018-12-03T22:02:24.587Z,6.93
2018-12-03T22:04:52.047Z,7.20
2018-12-03T22:07:19.489Z,6.30
2018-12-03T22:09:46.957Z,6.97
2018-12-03T22:12:14.415Z,6.47
2018-12-03T22:14:41.875Z,7.47
2018-12-03T22:17:09.335Z,5.40
2018-12-03T22:19:36.831Z,5.60
2018-12-03T22:22:04.337Z,6.13
2018-12-03T22:24:31.815Z,5.97
2018-12-03T22:26:59.265Z,7.00
2018-12-03T22:29:26.708Z,5.90
2018-12-03T22:31:54.191Z,6.90
2018-12-03T22:34:23.041Z,8.53
2018-12-03T22:36:50.621Z,6.90
2018-12-03T22:39:18.089Z,8.00
2018-12-03T22:41:45.545Z,6.70
2018-12-03T22:44:13.121Z,9.87
2018-12-03T22:46:40.586Z,6.67
2018-12-03T22:49:08.075Z,7.20
2018-12-03T22:51:35.553Z,5.77
2018-12-03T22:54:03.011Z,6.07
2018-12-03T22:56:30.475Z,5.00
2018-12-03T22:58:58.927Z,4.10
2018-12-03T23:01:26.442Z,3.80
2018-12-03T23:03:53.943Z,3.37
2018-12-03T23:06:21.433Z,3.40
2018-12-03T23:08:48.895Z,2.60
2018-12-03T23:11:16.386Z,5.10
2018-12-03T23:13:43.862Z,2.70
2018-12-03T23:16:11.362Z,2.00
2018-12-03T23:18:38.807Z,2.40
2018-12-03T23:21:06.294Z,2.17
2018-12-03T23:23:33.766Z,4.17
2018-12-03T23:26:01.229Z,2.67
2018-12-03T23:28:28.682Z,1.37
2018-12-03T23:30:56.157Z,1.00
2018-12-03T23:33:23.626Z,0.60
2018-12-03T23:35:51.121Z,0.80
2018-12-03T23:38:18.591Z,0.70
2018-12-03T23:40:46.062Z,0.60
2018-12-03T23:43:13.546Z,0.67
2018-12-03T23:45:40.994Z,0.97
2018-12-03T23:48:08.458Z,0.97
2018-12-03T23:50:35.931Z,0.90
2018-12-03T23:53:03.409Z,0.70
2018-12-03T23:55:30.880Z,0.90
2018-12-03T23:57:58.325Z,0.70
